Time;durP1;ratioP1;P1;durP2;ratioP2;P2;SDS_P1;SDS_P2;PMS_P1;PMS_P2;Temp;Humidity;BMP_temperature;BMP_pressure;BME280_temperature;BME280_humidity;BME280_pressure;Samples;Min_cycle;Max_cycle;Signal;HPM_P1;HPM_P2
2022/06/07 00:04:46;;;;;;;3.27;2.60;;;20.60;93.10;;;;;;10421044;28;20217;-78
2022/06/07 00:09:48;;;;;;;2.60;2.40;;;20.60;91.50;;;;;;10422342;28;20293;-78
2022/06/07 00:14:52;;;;;;;2.47;2.27;;;20.50;92.10;;;;;;10419824;28;20284;-78
2022/06/07 00:19:54;;;;;;;2.37;2.27;;;20.50;92.30;;;;;;10418287;28;20198;-78
2022/06/07 00:24:56;;;;;;;2.50;2.40;;;20.50;94.50;;;;;;10420469;28;20214;-78
2022/06/07 00:30:00;;;;;;;2.30;2.20;;;20.50;93.10;;;;;;10418417;28;20256;-78
2022/06/07 00:35:03;;;;;;;2.63;2.40;;;20.50;93.80;;;;;;10415070;28;20312;-78
2022/06/07 00:40:06;;;;;;;4.50;2.80;;;20.50;93.30;;;;;;10412240;28;20325;-78
2022/06/07 00:45:14;;;;;;;2.37;2.27;;;20.50;93.10;;;;;;10406787;28;20229;-78
2022/06/07 00:50:24;;;;;;;2.20;2.10;;;20.50;93.50;;;;;;10413352;28;20217;-78
2022/06/07 00:55:27;;;;;;;2.30;2.20;;;20.40;92.00;;;;;;10413374;28;20234;-77
2022/06/07 01:00:37;;;;;;;2.37;2.27;;;20.40;92.10;;;;;;10405507;28;20559;-78
2022/06/07 01:05:39;;;;;;;2.20;2.10;;;20.40;93.10;;;;;;10400722;28;20225;-78
2022/06/07 01:10:44;;;;;;;2.73;2.53;;;20.30;93.70;;;;;;10417364;28;20225;-78
2022/06/07 01:15:57;;;;;;;2.13;2.03;;;20.30;93.80;;;;;;10415560;28;20564;-78
2022/06/07 01:21:14;;;;;;;2.73;2.63;;;20.30;93.90;;;;;;10413502;28;20189;-78
2022/06/07 01:26:17;;;;;;;2.40;2.20;;;20.20;92.10;;;;;;10416216;28;20673;-78
2022/06/07 01:31:20;;;;;;;2.40;2.20;;;20.10;93.20;;;;;;10410618;28;20245;-78
2022/06/07 01:36:23;;;;;;;2.40;2.30;;;20.10;93.60;;;;;;10397525;28;20724;-78
2022/06/07 01:46:46;;;;;;;2.63;2.43;;;19.90;93.60;;;;;;10418329;28;20225;-78
2022/06/07 01:51:49;;;;;;;3.53;2.27;;;19.90;93.00;;;;;;10413515;28;20228;-78
2022/06/07 01:56:52;;;;;;;2.53;2.43;;;19.90;92.10;;;;;;10416116;28;20283;-78
2022/06/07 02:01:54;;;;;;;2.50;2.40;;;19.90;93.90;;;;;;10396307;28;20285;-78
2022/06/07 02:06:59;;;;;;;2.03;1.93;;;19.80;93.60;;;;;;10418595;28;20224;-78
2022/06/07 02:12:10;;;;;;;2.30;2.10;;;19.80;93.70;;;;;;10415924;28;20225;-78
2022/06/07 02:17:14;;;;;;;2.10;2.00;;;19.80;94.40;;;;;;10410690;28;20201;-78
2022/06/07 02:22:32;;;;;;;2.10;2.00;;;19.70;94.20;;;;;;10412886;28;20711;-78
2022/06/07 02:27:34;;;;;;;2.10;2.00;;;19.60;93.20;;;;;;10414652;28;20256;-78
2022/06/07 02:32:37;;;;;;;2.40;2.20;;;19.60;94.00;;;;;;10411406;28;20658;-78
2022/06/07 02:37:40;;;;;;;2.07;1.97;;;19.60;94.80;;;;;;10411964;28;20212;-78
2022/06/07 02:42:42;;;;;;;2.10;2.00;;;19.50;93.10;;;;;;10401779;28;20678;-78
2022/06/07 02:47:45;;;;;;;2.60;2.40;;;19.50;93.60;;;;;;10391712;28;20229;-78
2022/06/07 02:52:53;;;;;;;1.93;1.83;;;19.60;94.90;;;;;;10418123;28;20271;-78
2022/06/07 02:58:02;;;;;;;1.93;1.70;;;19.50;94.70;;;;;;10409648;28;20194;-78
2022/06/07 03:03:06;;;;;;;2.23;2.13;;;19.50;94.60;;;;;;10408236;28;20244;-78
2022/06/07 03:08:17;;;;;;;1.97;1.87;;;19.50;93.10;;;;;;10391977;28;20203;-76
2022/06/07 03:13:20;;;;;;;2.10;2.00;;;19.40;93.90;;;;;;10397455;28;20257;-79
2022/06/07 03:18:22;;;;;;;2.37;2.27;;;19.40;94.00;;;;;;10407589;28;20232;-76
2022/06/07 03:23:26;;;;;;;3.60;1.97;;;19.30;93.30;;;;;;10407285;28;20453;-76
2022/06/07 03:28:43;;;;;;;2.07;1.97;;;19.20;93.60;;;;;;10391332;28;20292;-76
2022/06/07 03:33:48;;;;;;;2.30;2.20;;;19.20;93.60;;;;;;10392406;28;20250;-76
2022/06/07 03:38:55;;;;;;;2.43;2.33;;;19.20;94.20;;;;;;10403145;28;20204;-76
2022/06/07 03:44:00;;;;;;;2.97;2.73;;;19.20;93.60;;;;;;10405555;28;20225;-76
2022/06/07 03:49:04;;;;;;;2.03;1.93;;;19.20;94.70;;;;;;10406776;28;20206;-76
2022/06/07 03:54:08;;;;;;;2.60;2.10;;;19.20;92.70;;;;;;10408853;28;20224;-76
2022/06/07 03:59:11;;;;;;;2.00;1.90;;;19.10;92.20;;;;;;10386515;28;20655;-76
2022/06/07 04:04:13;;;;;;;1.80;1.70;;;19.20;93.10;;;;;;10405212;28;20642;-78
2022/06/07 04:09:17;;;;;;;2.07;1.97;;;19.20;92.70;;;;;;10405557;28;20206;-78
2022/06/07 04:14:22;;;;;;;2.10;2.00;;;19.20;92.00;;;;;;10406678;28;20252;-75
2022/06/07 04:19:26;;;;;;;3.27;1.93;;;19.10;91.60;;;;;;10402183;28;20198;-76
2022/06/07 04:24:30;;;;;;;2.20;2.10;;;19.10;92.30;;;;;;10402653;28;20301;-79
2022/06/07 04:29:33;;;;;;;2.03;1.93;;;19.10;92.20;;;;;;10412788;28;20249;-76
2022/06/07 04:34:35;;;;;;;2.50;2.40;;;19.10;93.10;;;;;;10410623;28;20225;-77
2022/06/07 04:39:39;;;;;;;1.97;1.87;;;19.20;92.70;;;;;;10410504;28;20190;-76
2022/06/07 04:44:48;;;;;;;1.47;1.37;;;19.20;93.70;;;;;;10401355;28;20225;-77
2022/06/07 04:49:52;;;;;;;2.10;2.00;;;19.20;94.20;;;;;;10409575;28;20220;-77
2022/06/07 04:54:56;;;;;;;2.57;2.30;;;19.20;94.10;;;;;;10410663;28;20226;-76
2022/06/07 04:59:59;;;;;;;2.37;2.27;;;19.30;93.50;;;;;;10411737;28;20583;-77
2022/06/07 05:05:03;;;;;;;2.70;2.00;;;19.30;93.10;;;;;;10397364;28;20277;-76
2022/06/07 05:10:10;;;;;;;2.20;2.10;;;19.30;94.50;;;;;;10406136;28;20249;-77
2022/06/07 05:15:17;;;;;;;2.73;2.50;;;19.40;94.40;;;;;;10408845;28;20261;-77
2022/06/07 05:20:27;;;;;;;2.17;2.03;;;19.30;93.80;;;;;;10411065;28;20252;-77
2022/06/07 05:25:44;;;;;;;2.10;2.00;;;19.40;95.40;;;;;;10411562;28;20249;-76
2022/06/07 05:30:47;;;;;;;2.10;2.00;;;19.40;95.20;;;;;;10413373;28;20232;-76
2022/06/07 05:36:04;;;;;;;2.20;2.10;;;19.40;94.90;;;;;;10406331;28;20220;-76
2022/06/07 05:41:10;;;;;;;4.93;1.90;;;19.40;94.20;;;;;;10408600;28;20263;-76
2022/06/07 05:46:15;;;;;;;5.97;1.77;;;19.50;95.20;;;;;;10409281;28;20221;-77
2022/06/07 05:51:23;;;;;;;2.50;2.30;;;19.60;94.10;;;;;;10409705;28;20583;-77
2022/06/07 05:56:28;;;;;;;2.40;2.20;;;19.80;94.60;;;;;;10411838;28;20229;-77
2022/06/07 06:01:31;;;;;;;2.80;2.47;;;20.00;93.00;;;;;;10405052;28;20244;-77
2022/06/07 06:06:36;;;;;;;2.40;2.10;;;20.20;93.10;;;;;;10389048;28;20642;-77
2022/06/07 06:11:41;;;;;;;2.37;2.17;;;20.40;93.80;;;;;;10409063;28;20656;-77
2022/06/07 06:16:49;;;;;;;2.33;2.23;;;20.50;93.70;;;;;;10392362;28;20238;-76
2022/06/07 06:22:01;;;;;;;2.53;2.40;;;20.50;92.30;;;;;;10411359;28;20697;-76
2022/06/07 06:27:08;;;;;;;2.13;2.03;;;20.60;93.30;;;;;;10405793;28;20747;-76
2022/06/07 06:32:15;;;;;;;2.33;2.23;;;20.80;92.20;;;;;;10395020;28;20909;-76
2022/06/07 06:37:20;;;;;;;3.17;2.37;;;20.90;91.80;;;;;;10400564;28;20201;-77
2022/06/07 06:42:24;;;;;;;2.20;2.10;;;21.00;91.80;;;;;;10409799;28;20200;-77
2022/06/07 06:47:44;;;;;;;4.40;2.30;;;21.20;90.60;;;;;;10403831;28;20244;-77
2022/06/07 06:52:47;;;;;;;2.03;1.90;;;21.60;90.40;;;;;;10405896;28;20226;-77
2022/06/07 06:57:51;;;;;;;2.00;1.90;;;21.90;89.40;;;;;;10405192;28;20202;-76
2022/06/07 07:02:54;;;;;;;4.00;1.97;;;22.10;90.00;;;;;;10405382;28;20220;-76
2022/06/07 07:07:56;;;;;;;2.10;2.00;;;22.10;89.10;;;;;;10409513;28;20626;-77
2022/06/07 07:13:03;;;;;;;3.27;2.10;;;22.00;87.30;;;;;;10402349;28;20669;-76
2022/06/07 07:18:13;;;;;;;2.03;1.83;;;21.80;86.90;;;;;;10402399;28;20617;-77
2022/06/07 07:23:24;;;;;;;2.00;1.80;;;21.90;87.40;;;;;;10402234;28;20213;-77
2022/06/07 07:28:28;;;;;;;1.87;1.77;;;21.90;87.60;;;;;;10404921;28;20214;-77
2022/06/07 07:33:31;;;;;;;1.80;1.70;;;21.90;86.50;;;;;;10386411;28;20287;-77
2022/06/07 07:38:34;;;;;;;2.07;1.97;;;21.90;87.20;;;;;;10402384;28;20201;-76
2022/06/07 07:43:38;;;;;;;2.03;1.93;;;22.20;85.00;;;;;;10403722;28;20217;-77
2022/06/07 07:48:41;;;;;;;3.47;1.47;;;22.60;85.30;;;;;;10404363;28;20759;-76
2022/06/07 07:53:44;;;;;;;1.90;1.80;;;23.00;85.90;;;;;;10389382;28;20316;-77
2022/06/07 07:58:50;;;;;;;2.30;2.20;;;23.80;85.20;;;;;;10406890;28;20202;-77
2022/06/07 08:03:57;;;;;;;2.43;2.27;;;23.70;82.90;;;;;;10386414;28;20221;-77
2022/06/07 08:09:08;;;;;;;1.90;1.80;;;23.50;81.40;;;;;;10398933;28;20209;-77
2022/06/07 08:14:14;;;;;;;1.60;1.57;;;23.20;82.00;;;;;;10398937;28;20780;-77
2022/06/07 08:19:18;;;;;;;2.37;2.27;;;23.30;82.40;;;;;;10413054;28;20578;-77
2022/06/07 08:24:20;;;;;;;2.40;2.20;;;23.60;80.00;;;;;;10415463;28;20266;-76
2022/06/07 08:29:23;;;;;;;3.43;2.10;;;23.70;78.80;;;;;;10412808;28;20202;-76
2022/06/07 08:39:51;;;;;;;2.67;1.33;;;23.70;81.20;;;;;;10370928;28;20205;-76
2022/06/07 08:44:58;;;;;;;2.30;2.20;;;23.90;81.30;;;;;;10403283;28;20268;-76
2022/06/07 08:50:04;;;;;;;2.20;2.10;;;24.00;77.90;;;;;;10413484;28;20237;-79
2022/06/07 08:55:14;;;;;;;2.07;1.97;;;24.00;77.70;;;;;;10411629;28;20222;-77
2022/06/07 09:00:20;;;;;;;2.60;2.40;;;24.20;77.70;;;;;;10416656;28;20514;-76
2022/06/07 09:05:26;;;;;;;2.13;2.03;;;24.20;78.10;;;;;;10396670;28;20825;-76
2022/06/07 09:15:52;;;;;;;1.10;1.10;;;26.20;75.60;;;;;;10408045;28;20229;-76
2022/06/07 09:20:59;;;;;;;2.80;1.60;;;27.10;71.40;;;;;;10398473;28;20206;-77
2022/06/07 09:26:15;;;;;;;1.77;1.67;;;27.30;69.20;;;;;;10411496;28;20253;-77
2022/06/07 09:31:22;;;;;;;1.87;1.30;;;27.90;69.60;;;;;;10414702;28;20662;-76
2022/06/07 09:36:29;;;;;;;1.50;1.40;;;28.40;64.20;;;;;;10410784;28;20315;-76
2022/06/07 09:41:40;;;;;;;1.70;1.60;;;27.70;64.00;;;;;;10409576;28;20191;-76
2022/06/07 09:46:48;;;;;;;2.00;1.90;;;26.90;64.70;;;;;;10410096;28;20240;-76
2022/06/07 09:51:50;;;;;;;1.70;1.60;;;26.20;66.00;;;;;;10411381;28;20308;-76
2022/06/07 09:57:03;;;;;;;2.00;1.80;;;25.80;70.50;;;;;;10394506;28;20339;-76
2022/06/07 10:02:35;;;;;;;1.40;1.30;;;26.40;70.50;;;;;;10407340;28;20200;-76
2022/06/07 10:07:44;;;;;;;1.60;1.60;;;26.90;65.00;;;;;;10409846;28;20194;-77
2022/06/07 10:12:59;;;;;;;2.90;1.90;;;26.40;67.70;;;;;;10408269;28;20225;-77
2022/06/07 10:18:13;;;;;;;1.70;1.60;;;25.80;68.80;;;;;;10410600;28;20205;-76
2022/06/07 10:23:37;;;;;;;1.83;1.73;;;25.40;68.50;;;;;;10412257;28;20594;-76
2022/06/07 10:28:47;;;;;;;7.40;5.60;;;25.40;70.90;;;;;;10407017;28;20285;-76
2022/06/07 10:33:55;;;;;;;2.00;1.87;;;25.50;69.90;;;;;;10406681;28;20217;-76
2022/06/07 10:39:20;;;;;;;1.90;1.80;;;25.40;67.80;;;;;;10408253;28;20594;-76
2022/06/07 10:44:29;;;;;;;1.50;1.40;;;25.20;66.70;;;;;;10407323;28;20221;-76
2022/06/07 10:49:47;;;;;;;2.00;1.90;;;24.90;69.20;;;;;;10410600;28;20264;-76
2022/06/07 10:54:59;;;;;;;1.90;1.80;;;24.70;70.00;;;;;;10404023;28;20233;-76
2022/06/07 11:00:18;;;;;;;2.27;2.07;;;24.50;70.90;;;;;;10405192;28;20737;-76
2022/06/07 11:10:46;;;;;;;1.80;1.67;;;24.00;71.40;;;;;;10403303;28;20670;-76
2022/06/07 11:16:01;;;;;;;2.13;1.73;;;24.00;73.40;;;;;;10410437;28;20237;-76
2022/06/07 11:21:26;;;;;;;2.10;1.60;;;24.20;75.30;;;;;;10404843;28;20201;-77
2022/06/07 11:26:40;;;;;;;2.20;2.03;;;24.40;71.90;;;;;;10405639;28;20701;-78
2022/06/07 11:31:44;;;;;;;1.90;1.80;;;24.50;73.70;;;;;;10405964;28;20237;-77
2022/06/07 11:36:48;;;;;;;2.77;1.73;;;24.50;72.70;;;;;;10409968;28;20300;-77
2022/06/07 11:41:52;;;;;;;2.00;1.90;;;24.60;71.70;;;;;;10403536;28;20629;-77
2022/06/07 11:47:02;;;;;;;1.97;1.87;;;24.80;73.60;;;;;;10405182;28;20287;-77
2022/06/07 11:52:22;;;;;;;1.80;1.70;;;24.70;71.80;;;;;;10413552;28;20312;-76
2022/06/07 11:57:31;;;;;;;2.13;1.87;;;24.40;71.90;;;;;;10417582;28;20203;-77
2022/06/07 12:02:36;;;;;;;1.97;1.87;;;24.20;73.30;;;;;;10410140;28;20383;-76
2022/06/07 12:07:47;;;;;;;2.33;1.93;;;24.00;77.80;;;;;;10411618;28;20248;-77
2022/06/07 12:12:52;;;;;;;2.30;2.20;;;23.90;75.50;;;;;;10405009;28;20237;-77
2022/06/07 12:17:58;;;;;;;1.90;1.80;;;23.90;76.30;;;;;;10414153;28;20293;-76
2022/06/07 12:23:18;;;;;;;3.90;2.00;;;23.90;76.70;;;;;;10418088;28;20653;-76
2022/06/07 12:28:23;;;;;;;1.60;1.50;;;24.00;78.30;;;;;;10417436;28;20213;-76
2022/06/07 12:33:29;;;;;;;2.10;1.90;;;24.00;74.00;;;;;;10400343;28;20225;-78
2022/06/07 12:38:32;;;;;;;1.70;1.70;;;24.20;75.20;;;;;;10412630;28;20289;-78
2022/06/07 12:43:44;;;;;;;2.20;2.00;;;24.50;76.00;;;;;;10413584;28;20686;-76
2022/06/07 12:48:46;;;;;;;2.20;2.10;;;24.70;77.80;;;;;;10415024;28;20202;-76
2022/06/07 12:53:58;;;;;;;2.70;2.50;;;24.70;71.70;;;;;;10414970;28;20236;-76
2022/06/07 12:59:00;;;;;;;2.00;1.90;;;24.50;73.50;;;;;;10404931;28;20297;-76
2022/06/07 13:04:14;;;;;;;2.20;2.10;;;24.30;73.20;;;;;;10406752;28;20250;-77
2022/06/07 13:09:21;;;;;;;2.00;1.90;;;24.30;75.30;;;;;;10414316;28;20201;-76
2022/06/07 13:14:25;;;;;;;1.87;1.77;;;24.30;75.20;;;;;;10401161;28;20714;-76
2022/06/07 13:19:29;;;;;;;2.20;2.00;;;24.30;77.10;;;;;;10411805;28;20583;-77
2022/06/07 13:24:42;;;;;;;3.07;2.13;;;24.40;75.50;;;;;;10409791;28;20224;-76
2022/06/07 13:29:44;;;;;;;1.80;1.70;;;24.50;76.00;;;;;;10410615;28;20205;-76
2022/06/07 13:34:52;;;;;;;2.80;2.60;;;24.60;75.40;;;;;;10413193;28;20222;-77
2022/06/07 13:40:05;;;;;;;1.80;1.70;;;24.70;75.80;;;;;;10414971;28;20202;-76
2022/06/07 13:45:24;;;;;;;2.40;2.13;;;24.80;74.70;;;;;;10408940;28;20211;-77
2022/06/07 13:55:53;;;;;;;1.90;1.80;;;24.60;74.60;;;;;;10409813;28;20249;-76
2022/06/07 14:01:00;;;;;;;1.90;1.80;;;24.60;74.00;;;;;;10411137;28;20289;-77
2022/06/07 14:06:04;;;;;;;1.90;1.80;;;24.70;75.70;;;;;;10402496;28;20253;-76
2022/06/07 14:11:08;;;;;;;1.93;1.83;;;24.70;75.00;;;;;;10407611;28;20241;-77
2022/06/07 14:16:15;;;;;;;1.77;1.67;;;24.70;73.60;;;;;;10406630;28;20229;-77
2022/06/07 14:21:17;;;;;;;1.97;1.87;;;24.80;73.80;;;;;;10412390;28;20198;-76
2022/06/07 14:26:21;;;;;;;1.77;1.67;;;24.80;71.30;;;;;;10415767;28;20225;-76
2022/06/07 14:31:25;;;;;;;2.00;1.90;;;24.60;73.50;;;;;;10404321;28;20249;-76
2022/06/07 14:36:28;;;;;;;1.70;1.60;;;24.40;75.00;;;;;;10400989;28;20257;-77
2022/06/07 14:41:31;;;;;;;1.60;1.50;;;24.40;74.40;;;;;;10409380;28;20200;-77
2022/06/07 14:46:33;;;;;;;1.60;1.50;;;24.30;73.40;;;;;;10410548;28;20672;-78
2022/06/07 14:51:39;;;;;;;2.47;2.00;;;24.20;74.00;;;;;;10412464;28;20639;-76
2022/06/07 14:56:43;;;;;;;2.00;1.90;;;24.10;74.90;;;;;;10403346;28;20309;-76
2022/06/07 15:01:47;;;;;;;4.00;1.60;;;24.00;74.90;;;;;;10405905;28;20252;-76
2022/06/07 15:06:49;;;;;;;1.80;1.70;;;23.90;75.10;;;;;;10405614;28;20249;-77
2022/06/07 15:11:53;;;;;;;1.50;1.40;;;23.80;74.60;;;;;;10411729;28;20225;-77
2022/06/07 15:16:57;;;;;;;1.70;1.60;;;23.70;77.70;;;;;;10410609;28;20240;-76
2022/06/07 15:22:00;;;;;;;2.13;1.93;;;23.70;79.10;;;;;;10404639;28;20763;-76
2022/06/07 15:27:05;;;;;;;2.10;2.00;;;23.70;78.50;;;;;;10392540;28;20229;-77
2022/06/07 15:32:13;;;;;;;1.97;1.87;;;23.60;74.20;;;;;;10388241;28;20217;-77
2022/06/07 15:37:17;;;;;;;1.90;1.80;;;23.50;77.40;;;;;;10400117;28;20311;-77
2022/06/07 15:47:40;;;;;;;3.40;3.20;;;23.30;84.30;;;;;;10399285;28;20202;-77
2022/06/07 15:52:43;;;;;;;5.40;5.00;;;22.90;91.00;;;;;;10405384;28;20225;-76
2022/06/07 16:03:06;;;;;;;4.00;3.70;;;22.00;98.20;;;;;;10403147;28;20287;-77
2022/06/07 16:08:10;;;;;;;4.80;4.50;;;21.40;99.50;;;;;;10408941;28;20229;-77
2022/06/07 16:13:16;;;;;;;5.43;4.80;;;20.90;99.90;;;;;;10403656;28;20237;-77
2022/06/07 16:18:19;;;;;;;5.47;5.17;;;20.60;99.90;;;;;;10405331;28;20292;-77
2022/06/07 16:23:21;;;;;;;4.27;4.07;;;20.20;99.90;;;;;;10408392;28;20218;-77
2022/06/07 16:33:47;;;;;;;4.10;3.70;;;20.20;99.90;;;;;;10400931;28;20661;-77
2022/06/07 16:38:53;;;;;;;3.57;3.27;;;20.60;99.90;;;;;;10410326;28;20921;-77
2022/06/07 16:44:03;;;;;;;4.07;3.87;;;20.80;99.90;;;;;;10412175;28;20237;-77
2022/06/07 16:49:08;;;;;;;5.40;2.63;;;21.00;99.90;;;;;;10413757;28;20670;-77
2022/06/07 16:54:10;;;;;;;3.00;2.83;;;21.10;99.90;;;;;;10415166;28;20671;-77
2022/06/07 16:59:15;;;;;;;5.93;4.23;;;20.90;99.90;;;;;;10404304;28;20200;-77
2022/06/07 17:04:18;;;;;;;7.53;7.03;;;20.60;99.90;;;;;;10405469;28;20228;-77
2022/06/07 17:09:23;;;;;;;5.93;5.33;;;19.70;99.90;;;;;;10411282;28;20202;-76
2022/06/07 17:14:27;;;;;;;5.67;3.20;;;19.00;99.90;;;;;;10412759;28;20276;-76
2022/06/07 17:19:29;;;;;;;3.97;3.77;;;18.60;99.90;;;;;;10415358;28;20217;-77
2022/06/07 17:24:31;;;;;;;4.00;3.70;;;18.30;99.90;;;;;;10411009;28;20681;-76
2022/06/07 17:29:35;;;;;;;4.90;4.60;;;18.20;99.90;;;;;;10408296;28;20713;-76
2022/06/07 17:34:37;;;;;;;5.13;4.83;;;18.10;99.90;;;;;;10404077;28;20310;-77
2022/06/07 17:39:39;;;;;;;3.93;3.73;;;18.10;99.90;;;;;;10412055;28;20202;-77
2022/06/07 17:44:43;;;;;;;3.13;2.90;;;18.20;99.90;;;;;;10414345;28;20217;-77
2022/06/07 17:49:45;;;;;;;2.93;2.80;;;18.30;99.90;;;;;;10409021;28;20199;-77
2022/06/07 17:54:48;;;;;;;3.00;2.80;;;18.30;99.90;;;;;;10408989;28;20571;-77
2022/06/07 17:59:51;;;;;;;3.10;3.00;;;18.40;99.90;;;;;;10408844;28;20209;-77
2022/06/07 18:04:53;;;;;;;2.90;2.80;;;18.30;99.90;;;;;;10410740;28;20221;-77
2022/06/07 18:09:57;;;;;;;3.47;3.33;;;18.30;99.90;;;;;;10396479;28;20625;-77
2022/06/07 18:15:01;;;;;;;2.80;2.67;;;18.30;99.90;;;;;;10408636;28;20227;-77
2022/06/07 18:20:04;;;;;;;2.20;2.10;;;18.30;99.90;;;;;;10411833;28;20338;-77
2022/06/07 18:25:07;;;;;;;3.90;2.70;;;18.40;99.90;;;;;;10411913;28;20485;-78
2022/06/07 18:30:13;;;;;;;3.43;2.97;;;18.30;99.90;;;;;;10413510;28;20558;-77
2022/06/07 18:35:20;;;;;;;2.70;2.50;;;18.40;99.90;;;;;;10409495;28;20266;-77
2022/06/07 18:40:22;;;;;;;2.00;1.90;;;18.40;99.90;;;;;;10408860;28;20632;-77
2022/06/07 18:45:28;;;;;;;1.93;1.83;;;18.60;99.90;;;;;;10406840;28;20202;-77
2022/06/07 18:50:32;;;;;;;2.40;2.30;;;18.70;99.90;;;;;;10402914;28;20232;-77
2022/06/07 18:55:37;;;;;;;2.80;2.63;;;18.60;99.90;;;;;;10397496;28;20337;-77
2022/06/07 19:00:41;;;;;;;3.47;3.17;;;18.50;99.90;;;;;;10401165;28;20225;-78
2022/06/07 19:05:45;;;;;;;3.03;2.93;;;18.50;99.90;;;;;;10406003;28;20686;-78
2022/06/07 19:10:50;;;;;;;2.33;2.23;;;18.40;99.90;;;;;;10407459;28;20605;-77
2022/06/07 19:15:54;;;;;;;2.50;2.40;;;18.30;99.90;;;;;;10401272;28;20309;-77
2022/06/07 19:20:57;;;;;;;3.27;3.07;;;18.20;99.90;;;;;;10410177;28;20217;-76
2022/06/07 19:26:02;;;;;;;4.43;3.30;;;18.20;99.90;;;;;;10403534;28;20223;-77
2022/06/07 19:31:06;;;;;;;3.30;3.00;;;18.10;99.90;;;;;;10404535;28;20223;-77
2022/06/07 19:36:09;;;;;;;2.57;2.47;;;18.10;99.90;;;;;;10401136;28;20234;-77
2022/06/07 19:41:11;;;;;;;1.93;1.83;;;18.10;99.90;;;;;;10410236;28;20198;-77
2022/06/07 19:46:19;;;;;;;3.30;3.10;;;18.10;99.90;;;;;;10403520;28;20580;-77
2022/06/07 19:51:22;;;;;;;3.03;2.90;;;18.30;99.90;;;;;;10406144;28;20217;-77
2022/06/07 19:56:26;;;;;;;3.50;3.30;;;18.30;99.90;;;;;;10404770;28;20317;-77
2022/06/07 20:01:31;;;;;;;2.80;2.60;;;18.30;99.90;;;;;;10398541;28;20256;-77
2022/06/07 20:06:34;;;;;;;2.60;2.40;;;18.40;99.90;;;;;;10401460;28;20233;-77
2022/06/07 20:11:36;;;;;;;2.67;2.47;;;18.40;99.90;;;;;;10415248;28;20248;-77
2022/06/07 20:16:39;;;;;;;2.30;2.20;;;18.50;99.90;;;;;;10414544;28;20223;-77
2022/06/07 20:21:41;;;;;;;2.30;2.10;;;18.50;99.90;;;;;;10415898;28;20202;-77
2022/06/07 20:26:44;;;;;;;2.50;2.40;;;18.50;99.90;;;;;;10414857;28;20218;-77
2022/06/07 20:31:47;;;;;;;2.30;2.20;;;18.50;99.90;;;;;;10416075;28;20199;-77
2022/06/07 20:36:49;;;;;;;2.30;2.20;;;18.50;99.90;;;;;;10399450;28;20243;-77
2022/06/07 20:41:51;;;;;;;2.10;2.00;;;18.40;99.90;;;;;;10416708;28;20256;-77
2022/06/07 20:46:55;;;;;;;2.30;2.07;;;18.50;99.90;;;;;;10413419;28;20686;-78
2022/06/07 20:51:57;;;;;;;5.73;2.20;;;18.40;99.90;;;;;;10399693;28;20564;-77
2022/06/07 20:57:00;;;;;;;2.00;1.90;;;18.30;99.90;;;;;;10416273;28;20233;-76
2022/06/07 21:02:06;;;;;;;2.43;2.27;;;18.30;99.90;;;;;;10409639;28;20344;-77
2022/06/07 21:07:08;;;;;;;1.90;1.80;;;18.40;99.90;;;;;;10414090;28;20248;-75
2022/06/07 21:12:10;;;;;;;2.10;2.00;;;18.30;99.90;;;;;;10410583;28;20209;-77
2022/06/07 21:17:14;;;;;;;2.00;1.90;;;18.40;99.90;;;;;;10411286;28;20710;-78
2022/06/07 21:22:16;;;;;;;3.77;2.33;;;18.20;99.90;;;;;;10410214;28;20210;-76
2022/06/07 21:27:19;;;;;;;2.60;2.50;;;18.40;99.90;;;;;;10413745;28;20256;-77
2022/06/07 21:32:24;;;;;;;2.10;2.00;;;18.40;99.90;;;;;;10402367;28;20726;-76
2022/06/07 21:37:26;;;;;;;2.27;2.17;;;18.50;99.90;;;;;;10400551;28;20697;-77
2022/06/07 21:42:29;;;;;;;3.70;2.53;;;18.50;99.90;;;;;;10410492;28;20260;-76
2022/06/07 21:47:33;;;;;;;2.10;2.00;;;18.60;99.90;;;;;;10410157;28;20280;-77
2022/06/07 21:52:35;;;;;;;1.80;1.70;;;18.60;99.90;;;;;;10413328;28;20298;-76
2022/06/07 21:57:38;;;;;;;2.00;1.90;;;18.70;99.90;;;;;;10407504;28;20208;-77
2022/06/07 22:02:41;;;;;;;1.97;1.87;;;18.60;99.90;;;;;;10388250;28;20226;-77
2022/06/07 22:07:44;;;;;;;5.70;1.70;;;18.40;99.90;;;;;;10414310;28;20201;-78
2022/06/07 22:12:46;;;;;;;1.90;1.80;;;18.40;99.90;;;;;;10412722;28;20626;-77
2022/06/07 22:17:50;;;;;;;1.83;1.73;;;18.40;99.90;;;;;;10415858;28;20240;-78
2022/06/07 22:22:52;;;;;;;2.57;2.07;;;18.30;99.90;;;;;;10410835;28;20233;-78
2022/06/07 22:27:55;;;;;;;2.20;2.00;;;18.30;99.90;;;;;;10411263;28;20194;-78
2022/06/07 22:32:59;;;;;;;1.80;1.70;;;18.10;99.90;;;;;;10406228;28;20221;-78
2022/06/07 22:38:01;;;;;;;2.30;2.20;;;18.00;99.90;;;;;;10413953;28;20194;-78
2022/06/07 22:43:04;;;;;;;1.97;1.87;;;18.10;99.90;;;;;;10397285;28;20214;-78
2022/06/07 22:48:08;;;;;;;1.90;1.80;;;17.90;99.90;;;;;;10396677;28;20205;-78
2022/06/07 22:53:15;;;;;;;2.70;2.50;;;17.90;99.90;;;;;;10407941;28;20222;-78
2022/06/07 22:58:22;;;;;;;2.20;2.10;;;17.90;99.90;;;;;;10413430;28;20209;-78
2022/06/07 23:03:29;;;;;;;2.53;2.43;;;17.80;99.90;;;;;;10409162;28;20305;-77
2022/06/07 23:08:32;;;;;;;4.10;2.30;;;17.80;99.90;;;;;;10413120;28;20202;-78
2022/06/07 23:18:55;;;;;;;2.07;1.97;;;17.80;99.90;;;;;;10408394;28;20277;-78
2022/06/07 23:23:57;;;;;;;3.10;2.43;;;17.70;99.90;;;;;;10410582;28;20271;-78
2022/06/07 23:29:00;;;;;;;2.57;2.40;;;17.70;99.90;;;;;;10411473;28;20202;-77
2022/06/07 23:34:04;;;;;;;2.50;2.40;;;17.70;99.90;;;;;;10410139;28;20317;-78
2022/06/07 23:39:07;;;;;;;2.80;2.60;;;17.70;99.90;;;;;;10407197;28;20193;-78
2022/06/07 23:44:09;;;;;;;2.90;2.60;;;17.60;99.90;;;;;;10408254;28;20217;-78
2022/06/07 23:49:17;;;;;;;2.90;2.60;;;17.60;99.90;;;;;;10410283;28;20194;-77
2022/06/07 23:54:20;;;;;;;2.57;2.47;;;17.60;99.90;;;;;;10411706;28;20220;-78
2022/06/07 23:59:26;;;;;;;2.77;2.57;;;17.60;99.90;;;;;;10406209;28;20625;-78
